Station History

Weather Underground - logo

Station Historical Data
Daily Summary for July 1, 2017 Units:  English    Metric   Both
« Previous Day
Next Day »
Daily Weekly Monthly Yearly Custom
  High: Low: Average:
Temperature: TemperatureF °F 76.4 °F 89.2 °F
Dew Point: DewpointF °F 51.3 °F 56 °F
Humidity: Humidity % 22 % 34 %
Wind Speed: WindSpeedMPH mph 0.0 mph 2.4 mph
Wind Gust: WindSpeedGustMPH mph - -
Wind:- - WNW
Pressure: PressureIn in 29.67 in -
Precipitation: 0.00 in    
Historical Graphs
 
 
Tabular Data for July 1, 2017
Time Temperature Dew Point Pressure Wind Wind Speed Wind Gust Humidity Rainfall Rate (Hourly)
TemperatureF °F DewpointF °F PressureIn in Calm     Humidity % HourlyPrecipIn in
12:31 90.5 °F 63.5 °F 29.76 in NW 1.0 mph 3.0 mph 41 % 0.00 in
12:32 90.6 °F 63.0 °F 29.76 in NW 2.3 mph 2.3 mph 40 % 0.00 in
12:33 90.7 °F 63.1 °F 29.76 in Calm     40 % 0.00 in
12:34 90.8 °F 63.9 °F 29.76 in SW 1.2 mph 1.2 mph 41 % 0.00 in
12:39 91.2 °F 62.8 °F 29.76 in WNW 3.5 mph 3.5 mph 39 % 0.00 in
12:44 91.5 °F 64.5 °F 29.76 in NNE 2.3 mph 2.3 mph 41 % 0.00 in
12:49 91.8 °F 64.7 °F 29.76 in NNW 3.5 mph   41 % 0.00 in
12:54 92.3 °F 60.7 °F 29.76 in NW 1.2 mph 1.2 mph 35 % 0.00 in
12:59 92.7 °F 61.8 °F 29.75 in South 2.3 mph 2.3 mph 36 % 0.00 in
13:04 92.8 °F 59.5 °F 29.75 in NNW 3.5 mph 3.5 mph 33 % 0.00 in
13:09 92.7 °F 60.2 °F 29.75 in WNW 2.3 mph 2.3 mph 34 % 0.00 in
13:14 92.7 °F 60.2 °F 29.75 in NW 6.0 mph 6.0 mph 34 % 0.00 in
13:20 92.9 °F 57.8 °F 29.75 in SE 2.3 mph 2.3 mph 31 % 0.00 in
13:25 93.1 °F 58.0 °F 29.75 in NW 3.5 mph 3.5 mph 31 % 0.00 in
13:30 93.1 °F 58.9 °F 29.75 in West 4.6 mph 4.6 mph 32 % 0.00 in
13:35 93.5 °F 56.5 °F 29.75 in NNW 3.5 mph 3.5 mph 29 % 0.00 in
13:40 93.5 °F 54.5 °F 29.75 in NW 4.6 mph 4.6 mph 27 % 0.00 in
13:45 93.1 °F 53.1 °F 29.75 in WNW 3.5 mph 3.5 mph 26 % 0.00 in
13:50 93.6 °F 53.6 °F 29.74 in NW 3.5 mph 3.5 mph 26 % 0.00 in
13:55 93.9 °F 51.6 °F 29.74 in NW 3.5 mph 3.5 mph 24 % 0.00 in
14:00 94.5 °F 52.1 °F 29.74 in NNE 4.0 mph 4.0 mph 24 % 0.00 in
14:05 94.6 °F 52.2 °F 29.74 in WNW 3.5 mph 3.5 mph 24 % 0.00 in
14:10 95.1 °F 56.9 °F 29.74 in North 2.0 mph 2.0 mph 28 % 0.00 in
14:15 94.5 °F 55.4 °F 29.74 in WNW 7.0 mph 7.0 mph 27 % 0.04 in
14:24 94.2 °F 55.1 °F 29.73 in NW 4.0 mph 4.0 mph 27 % 0.00 in
14:29 94.2 °F 54.1 °F 29.73 in NW 3.0 mph 3.0 mph 26 % 0.00 in
14:34 94.4 °F 54.2 °F 29.73 in NW 4.0 mph 4.0 mph 26 % 0.00 in
14:39 94.2 °F 54.1 °F 29.73 in WNW 2.3 mph 2.3 mph 26 % 0.00 in
14:44 94.4 °F 55.3 °F 29.73 in East 4.6 mph 4.6 mph 27 % 0.00 in
14:49 94.2 °F 54.1 °F 29.73 in NW 3.5 mph 3.5 mph 26 % 0.00 in
14:55 94.1 °F 55.0 °F 29.73 in NW 6.9 mph 6.9 mph 27 % 0.00 in
15:00 94.4 °F 56.3 °F 29.72 in NW 3.5 mph 3.5 mph 28 % 0.00 in
15:05 94.5 °F 55.4 °F 29.72 in WNW 3.5 mph 3.5 mph 27 % 0.00 in
15:10 94.8 °F 54.6 °F 29.72 in North 5.0 mph 5.0 mph 26 % 0.00 in
15:15 94.7 °F 54.5 °F 29.72 in NNW 3.5 mph 3.5 mph 26 % 0.00 in
15:20 94.9 °F 53.6 °F 29.71 in West 3.5 mph 3.5 mph 25 % 0.00 in
15:25 94.8 °F 55.6 °F 29.71 in WNW 3.5 mph 3.5 mph 27 % 0.00 in
15:30 95.5 °F 55.2 °F 29.71 in West 3.5 mph 3.5 mph 26 % 0.00 in
15:35 95.6 °F 54.2 °F 29.71 in NW 2.3 mph 2.3 mph 25 % 0.00 in
15:40 95.5 °F 54.1 °F 29.70 in WNW 5.8 mph 5.8 mph 25 % 0.00 in
15:46 95.4 °F 52.9 °F 29.70 in WSW 3.5 mph 3.5 mph 24 % 0.00 in
15:51 95.6 °F 54.2 °F 29.70 in NNW 5.0 mph 5.0 mph 25 % 0.00 in
15:56 95.8 °F 54.3 °F 29.70 in NNW 5.0 mph 5.0 mph 25 % 0.00 in
16:01 95.9 °F 52.1 °F 29.70 in NW 3.5 mph 3.5 mph 23 % 0.00 in
16:06 95.6 °F 53.1 °F 29.69 in WNW 3.5 mph 3.5 mph 24 % 0.00 in
16:11 96.4 °F 52.6 °F 29.69 in NW 3.0 mph 3.0 mph 23 % 0.00 in
16:16 96.4 °F 52.6 °F 29.69 in WNW 4.0 mph 4.0 mph 23 % 0.00 in
16:21 96.2 °F 53.6 °F 29.69 in NNW 5.8 mph 5.8 mph 24 % 0.00 in
16:26 96.1 °F 53.5 °F 29.69 in NW 5.8 mph 5.8 mph 24 % 0.00 in
16:31 96.1 °F 53.5 °F 29.69 in NW 3.5 mph 3.5 mph 24 % 0.00 in
16:36 95.9 °F 52.1 °F 29.68 in NNW 3.5 mph 3.5 mph 23 % 0.00 in
16:41 95.9 °F 52.1 °F 29.68 in NW 5.8 mph 5.8 mph 23 % 0.00 in
16:46 96.0 °F 54.5 °F 29.68 in NW 3.5 mph 3.5 mph 25 % 0.00 in
16:51 96.5 °F 52.6 °F 29.68 in NW 3.5 mph 3.5 mph 23 % 0.00 in
16:56 96.4 °F 53.7 °F 29.68 in NNW 3.5 mph 3.5 mph 24 % 0.00 in
17:01 96.5 °F 54.9 °F 29.68 in NW 3.5 mph 3.5 mph 25 % 0.00 in
17:06 96.7 °F 51.6 °F 29.68 in NW 3.5 mph 3.5 mph 22 % 0.00 in
17:11 96.6 °F 51.5 °F 29.68 in WNW 3.5 mph 3.5 mph 22 % 0.00 in
17:16 96.3 °F 51.3 °F 29.68 in WNW 4.6 mph 4.6 mph 22 % 0.00 in
17:21 96.4 °F 52.6 °F 29.68 in WNW 3.5 mph 3.5 mph 23 % 0.00 in
17:26 96.5 °F 52.6 °F 29.68 in NNW 3.5 mph 3.5 mph 23 % 0.00 in
17:31 96.3 °F 53.6 °F 29.68 in North 4.6 mph 4.6 mph 24 % 0.00 in
17:37 96.1 °F 53.5 °F 29.67 in NNW 4.6 mph 4.6 mph 24 % 0.00 in
17:42 96.0 °F 55.6 °F 29.68 in WNW 2.3 mph 2.3 mph 26 % 0.00 in
17:47 96.2 °F 54.7 °F 29.67 in NW 3.5 mph 3.5 mph 25 % 0.00 in
17:52 95.9 °F 55.5 °F 29.67 in North 3.5 mph 3.5 mph 26 % 0.00 in
17:57 96.1 °F 54.6 °F 29.67 in NW 2.3 mph 2.3 mph 25 % 0.00 in
18:02 96.0 °F 54.5 °F 29.67 in NW 3.5 mph 3.5 mph 25 % 0.00 in
18:07 95.7 °F 54.3 °F 29.67 in NNW 4.6 mph 4.6 mph 25 % 0.00 in
18:12 95.5 °F 53.0 °F 29.68 in NNW 3.5 mph 3.5 mph 24 % 0.00 in
18:17 95.4 °F 55.1 °F 29.68 in NW 3.5 mph 3.5 mph 26 % 0.00 in
18:22 95.3 °F 55.0 °F 29.68 in NNW 3.5 mph 3.5 mph 26 % 0.00 in
18:27 95.2 °F 54.9 °F 29.68 in NW 4.6 mph 4.6 mph 26 % 0.00 in
18:32 94.9 °F 55.7 °F 29.68 in NW 3.5 mph 3.5 mph 27 % 0.00 in
18:37 94.7 °F 56.5 °F 29.68 in WNW 3.5 mph 3.5 mph 28 % 0.00 in
18:42 94.7 °F 54.5 °F 29.68 in NNW 3.5 mph 3.5 mph 26 % 0.00 in
18:47 94.6 °F 55.4 °F 29.68 in NW 3.5 mph 3.5 mph 27 % 0.00 in
18:52 94.4 °F 55.3 °F 29.68 in NNW 2.3 mph 2.3 mph 27 % 0.00 in
18:57 94.1 °F 54.0 °F 29.68 in NW 3.5 mph 3.5 mph 26 % 0.00 in
19:02 93.6 °F 54.6 °F 29.68 in NNW 1.2 mph 1.2 mph 27 % 0.00 in
19:07 93.4 °F 54.4 °F 29.68 in WNW 2.3 mph 2.3 mph 27 % 0.00 in
19:12 93.2 °F 54.3 °F 29.68 in NW 3.5 mph 3.5 mph 27 % 0.00 in
19:17 92.9 °F 53.0 °F 29.68 in West 2.3 mph 2.3 mph 26 % 0.00 in
19:22 92.2 °F 54.4 °F 29.69 in Calm   0.2 mph 28 % 0.00 in
19:27 91.7 °F 54.9 °F 29.69 in NW 1.2 mph 1.2 mph 29 % 0.00 in
19:32 91.2 °F 54.5 °F 29.69 in NW 1.2 mph 1.2 mph 29 % 0.00 in
19:37 90.7 °F 54.1 °F 29.69 in NW 1.2 mph 1.2 mph 29 % 0.00 in
19:42 90.1 °F 56.3 °F 29.69 in NNE 1.2 mph   32 % 0.00 in
19:47 89.6 °F 55.8 °F 29.69 in NW 2.3 mph 2.3 mph 32 % 0.00 in
19:52 89.2 °F 56.3 °F 29.69 in NW 2.3 mph 2.3 mph 33 % 0.00 in
19:57 88.6 °F 56.6 °F 29.69 in WNW 1.2 mph 1.2 mph 34 % 0.00 in
20:02 88.1 °F 56.2 °F 29.69 in NW 3.5 mph 3.5 mph 34 % 0.00 in
20:07 87.8 °F 55.9 °F 29.70 in NW 2.3 mph 2.3 mph 34 % 0.00 in
20:12 87.4 °F 56.4 °F 29.70 in WNW 2.3 mph 2.3 mph 35 % 0.00 in
20:17 87.0 °F 56.8 °F 29.70 in WNW 1.2 mph 1.2 mph 36 % 0.00 in
20:22 86.5 °F 56.4 °F 29.70 in NW 1.2 mph 1.2 mph 36 % 0.00 in
20:27 86.1 °F 56.8 °F 29.70 in NNW 2.3 mph 2.3 mph 37 % 0.00 in
20:32 85.8 °F 57.3 °F 29.70 in NW 2.3 mph 2.3 mph 38 % 0.00 in
20:37 85.4 °F 57.6 °F 29.70 in NW 1.2 mph 1.2 mph 39 % 0.00 in
20:42 85.0 °F 58.0 °F 29.71 in NW 1.2 mph   40 % 0.00 in
20:47 84.6 °F 57.6 °F 29.71 in Calm     40 % 0.00 in
20:52 84.3 °F 58.0 °F 29.71 in Calm     41 % 0.00 in
20:57 84.1 °F 57.9 °F 29.71 in NW 1.0 mph 1.0 mph 41 % 0.00 in
21:02 83.9 °F 57.7 °F 29.71 in NW 1.2 mph   41 % 0.00 in
21:07 83.7 °F 58.2 °F 29.72 in Calm     42 % 0.00 in
21:12 83.5 °F 58.0 °F 29.72 in Calm     42 % 0.00 in
21:17 83.3 °F 57.8 °F 29.72 in Calm     42 % 0.00 in
21:22 83.2 °F 57.7 °F 29.72 in Calm     42 % 0.00 in
21:27 83.0 °F 57.5 °F 29.72 in Calm     42 % 0.00 in
21:32 82.8 °F 58.0 °F 29.72 in Calm     43 % 0.00 in
21:37 82.6 °F 57.8 °F 29.73 in Calm     43 % 0.00 in
21:43 82.3 °F 58.2 °F 29.73 in Calm     44 % 0.00 in
21:48 82.0 °F 58.6 °F 29.73 in Calm     45 % 0.00 in
21:53 81.7 °F 58.3 °F 29.73 in Calm     45 % 0.00 in
21:58 81.3 °F 57.9 °F 29.73 in Calm     45 % 0.00 in
22:03 80.9 °F 59.4 °F 29.73 in Calm     48 % 0.00 in
22:08 80.4 °F 58.3 °F 29.73 in Calm     47 % 0.00 in
22:13 80.0 °F 58.5 °F 29.73 in Calm     48 % 0.00 in
22:18 79.9 °F 59.0 °F 29.74 in Calm     49 % 0.00 in
22:23 79.9 °F 59.0 °F 29.74 in Calm     49 % 0.00 in
22:28 79.7 °F 58.8 °F 29.74 in Calm     49 % 0.00 in
22:33 79.7 °F 58.8 °F 29.74 in Calm     49 % 0.00 in
22:38 79.6 °F 59.3 °F 29.74 in Calm     50 % 0.00 in
22:43 79.2 °F 59.0 °F 29.74 in Calm     50 % 0.00 in
22:48 78.8 °F 59.1 °F 29.74 in Calm     51 % 0.00 in
22:53 78.4 °F 58.8 °F 29.74 in Calm     51 % 0.00 in
22:58 78.4 °F 59.3 °F 29.74 in Calm     52 % 0.00 in
23:03 78.3 °F 59.2 °F 29.74 in NW 1.2 mph 1.2 mph 52 % 0.00 in
23:08 78.3 °F 59.2 °F 29.74 in NNW 2.3 mph   52 % 0.00 in
23:13 78.1 °F 59.0 °F 29.74 in NW 1.0 mph 1.0 mph 52 % 0.00 in
23:18 78.0 °F 59.5 °F 29.74 in Calm     53 % 0.00 in
23:23 77.8 °F 58.8 °F 29.74 in Calm     52 % 0.00 in
23:28 77.6 °F 58.6 °F 29.74 in NW 1.2 mph   52 % 0.00 in
23:33 77.4 °F 59.5 °F 29.74 in Calm     54 % 0.00 in
23:38 77.0 °F 59.6 °F 29.74 in Calm     55 % 0.00 in
23:43 76.8 °F 59.4 °F 29.74 in Calm     55 % 0.00 in
23:48 76.6 °F 59.2 °F 29.74 in WNW 2.3 mph 2.3 mph 55 % 0.00 in
23:53 76.6 °F 59.2 °F 29.74 in Calm     55 % 0.00 in
23:58 76.4 °F 59.5 °F 29.74 in North 1.2 mph 1.2 mph 56 % 0.00 in
Park Place, Exeter, Tulare County, California, USA
Compliments of Weather Underground - 2 mb